GB-0374 weather

Viewfield Airstrip
Scotland, United Kingdom

Public forecast

Using degrees Celsius for public forecast. Weather courtesy of forecast.io.

Closest aviation weather report (METAR) to Viewfield Airstrip

Closest report is RAF Lossiemouth, 5.4 nm (10.0 km) WNW. Retrieved 2020/07/05 03:50 UTC (46 minutes ago):

EGQS 050350Z 31008KT 9999 SCT010 SCT020 OVC035 11/10 Q0990 RMK GRN

Closest aviation forecast (TAF) to Viewfield Airstrip

Closest forecast is RAF Lossiemouth, 5.4 nm (10.0 km) WNW. Retrieved 2020-07-05 03:37 UTC (59 minutes ago):

TAF EGQS 050128Z 0503/0521 01012KT 9999 BKN035 PROB40 TEMPO 0503/0507 3000 RADZ BKN008 PROB30 TEMPO 0503/0505 SCT005 BECMG 0506/0509 26015KT PROB40 TEMPO 0507/0509 5000 SHRA SCT016 PROB30 TEMPO 0509/0518 28016G26KT 4000 +SHRA BKN022CB PROB30 TEMPO 0518/0521 5000 SHRA BKN014TCU